sensor_id;sensor_type;location;lat;lon;timestamp;P1;durP1;ratioP1;P2;durP2;ratioP2
75377;SDS011;63959;51.960;5.886;2023-05-08T00:00:55;17.33;;;10.85;;
75377;SDS011;63959;51.960;5.886;2023-05-08T00:03:26;26.63;;;16.95;;
75377;SDS011;63959;51.960;5.886;2023-05-08T00:06:02;23.13;;;15.52;;
75377;SDS011;63959;51.960;5.886;2023-05-08T00:08:36;19.00;;;12.80;;
75377;SDS011;63959;51.960;5.886;2023-05-08T00:11:06;21.38;;;13.32;;
75377;SDS011;63959;51.960;5.886;2023-05-08T00:13:35;24.30;;;16.45;;
75377;SDS011;63959;51.960;5.886;2023-05-08T00:16:06;21.17;;;14.75;;
75377;SDS011;63959;51.960;5.886;2023-05-08T00:18:36;21.63;;;13.68;;
75377;SDS011;63959;51.960;5.886;2023-05-08T00:21:05;22.42;;;14.93;;
75377;SDS011;63959;51.960;5.886;2023-05-08T00:23:36;22.95;;;14.65;;
75377;SDS011;63959;51.960;5.886;2023-05-08T00:26:05;22.27;;;14.57;;
75377;SDS011;63959;51.960;5.886;2023-05-08T00:28:34;22.52;;;15.15;;
75377;SDS011;63959;51.960;5.886;2023-05-08T00:31:02;26.65;;;16.42;;
75377;SDS011;63959;51.960;5.886;2023-05-08T00:33:31;21.10;;;13.98;;
75377;SDS011;63959;51.960;5.886;2023-05-08T00:36:00;21.00;;;14.27;;
75377;SDS011;63959;51.960;5.886;2023-05-08T00:38:30;20.20;;;13.23;;
75377;SDS011;63959;51.960;5.886;2023-05-08T00:41:01;23.60;;;14.48;;
75377;SDS011;63959;51.960;5.886;2023-05-08T00:43:31;19.77;;;13.68;;
75377;SDS011;63959;51.960;5.886;2023-05-08T00:46:04;22.50;;;14.35;;
75377;SDS011;63959;51.960;5.886;2023-05-08T00:48:34;19.85;;;12.57;;
75377;SDS011;63959;51.960;5.886;2023-05-08T00:51:04;18.80;;;11.75;;
75377;SDS011;63959;51.960;5.886;2023-05-08T00:53:35;21.75;;;12.23;;
75377;SDS011;63959;51.960;5.886;2023-05-08T00:56:08;21.02;;;14.05;;
75377;SDS011;63959;51.960;5.886;2023-05-08T00:58:37;20.00;;;13.55;;
75377;SDS011;63959;51.960;5.886;2023-05-08T01:01:07;21.60;;;14.65;;
75377;SDS011;63959;51.960;5.886;2023-05-08T01:03:36;18.80;;;12.20;;
75377;SDS011;63959;51.960;5.886;2023-05-08T01:06:05;21.15;;;12.18;;
75377;SDS011;63959;51.960;5.886;2023-05-08T01:08:34;19.05;;;11.43;;
75377;SDS011;63959;51.960;5.886;2023-05-08T01:11:12;17.05;;;10.85;;
75377;SDS011;63959;51.960;5.886;2023-05-08T01:13:46;20.35;;;12.23;;
75377;SDS011;63959;51.960;5.886;2023-05-08T01:16:20;21.15;;;14.07;;
75377;SDS011;63959;51.960;5.886;2023-05-08T01:18:53;24.15;;;16.08;;
75377;SDS011;63959;51.960;5.886;2023-05-08T01:21:26;24.27;;;16.25;;
75377;SDS011;63959;51.960;5.886;2023-05-08T01:26:55;18.35;;;11.35;;
75377;SDS011;63959;51.960;5.886;2023-05-08T01:29:37;17.75;;;10.65;;
75377;SDS011;63959;51.960;5.886;2023-05-08T01:32:13;19.25;;;11.07;;
75377;SDS011;63959;51.960;5.886;2023-05-08T01:34:45;18.35;;;10.63;;
75377;SDS011;63959;51.960;5.886;2023-05-08T01:37:19;23.13;;;15.05;;
75377;SDS011;63959;51.960;5.886;2023-05-08T01:39:53;16.92;;;11.40;;
75377;SDS011;63959;51.960;5.886;2023-05-08T01:42:25;18.48;;;11.63;;
75377;SDS011;63959;51.960;5.886;2023-05-08T01:44:58;24.30;;;16.05;;
75377;SDS011;63959;51.960;5.886;2023-05-08T01:47:32;18.63;;;11.30;;
75377;SDS011;63959;51.960;5.886;2023-05-08T01:50:02;23.95;;;13.43;;
75377;SDS011;63959;51.960;5.886;2023-05-08T01:52:34;20.48;;;13.30;;
75377;SDS011;63959;51.960;5.886;2023-05-08T01:55:06;17.73;;;10.45;;
75377;SDS011;63959;51.960;5.886;2023-05-08T01:57:37;19.33;;;12.35;;
75377;SDS011;63959;51.960;5.886;2023-05-08T02:00:08;24.20;;;16.35;;
75377;SDS011;63959;51.960;5.886;2023-05-08T02:02:39;24.63;;;16.63;;
75377;SDS011;63959;51.960;5.886;2023-05-08T02:05:08;24.80;;;16.25;;
75377;SDS011;63959;51.960;5.886;2023-05-08T02:07:38;26.52;;;17.17;;
75377;SDS011;63959;51.960;5.886;2023-05-08T02:10:08;23.75;;;14.20;;
75377;SDS011;63959;51.960;5.886;2023-05-08T02:12:37;21.88;;;13.32;;
75377;SDS011;63959;51.960;5.886;2023-05-08T02:15:07;23.42;;;14.50;;
75377;SDS011;63959;51.960;5.886;2023-05-08T02:17:40;23.70;;;14.98;;
75377;SDS011;63959;51.960;5.886;2023-05-08T02:20:11;21.33;;;13.68;;
75377;SDS011;63959;51.960;5.886;2023-05-08T02:22:40;22.60;;;13.95;;
75377;SDS011;63959;51.960;5.886;2023-05-08T02:25:11;20.15;;;13.18;;
75377;SDS011;63959;51.960;5.886;2023-05-08T02:27:41;21.75;;;13.88;;
75377;SDS011;63959;51.960;5.886;2023-05-08T02:30:11;22.63;;;14.18;;
75377;SDS011;63959;51.960;5.886;2023-05-08T02:32:43;20.75;;;12.30;;
75377;SDS011;63959;51.960;5.886;2023-05-08T02:35:15;23.15;;;14.80;;
75377;SDS011;63959;51.960;5.886;2023-05-08T02:37:45;26.38;;;17.75;;
75377;SDS011;63959;51.960;5.886;2023-05-08T02:40:15;24.38;;;15.18;;
75377;SDS011;63959;51.960;5.886;2023-05-08T02:42:44;21.50;;;14.02;;
75377;SDS011;63959;51.960;5.886;2023-05-08T02:45:14;23.35;;;15.75;;
75377;SDS011;63959;51.960;5.886;2023-05-08T02:47:49;19.70;;;12.15;;
75377;SDS011;63959;51.960;5.886;2023-05-08T02:50:22;19.17;;;12.70;;
75377;SDS011;63959;51.960;5.886;2023-05-08T02:52:52;22.15;;;14.40;;
75377;SDS011;63959;51.960;5.886;2023-05-08T02:55:24;22.45;;;14.02;;
75377;SDS011;63959;51.960;5.886;2023-05-08T02:57:58;22.95;;;14.45;;
75377;SDS011;63959;51.960;5.886;2023-05-08T03:00:32;19.85;;;13.13;;
75377;SDS011;63959;51.960;5.886;2023-05-08T03:03:08;25.55;;;15.48;;
75377;SDS011;63959;51.960;5.886;2023-05-08T03:05:42;26.73;;;15.35;;
75377;SDS011;63959;51.960;5.886;2023-05-08T03:08:13;18.58;;;11.73;;
75377;SDS011;63959;51.960;5.886;2023-05-08T03:10:43;20.13;;;12.30;;
75377;SDS011;63959;51.960;5.886;2023-05-08T03:13:13;18.67;;;11.23;;
75377;SDS011;63959;51.960;5.886;2023-05-08T03:15:43;20.50;;;13.60;;
75377;SDS011;63959;51.960;5.886;2023-05-08T03:18:16;22.90;;;13.60;;
75377;SDS011;63959;51.960;5.886;2023-05-08T03:20:47;26.70;;;17.05;;
75377;SDS011;63959;51.960;5.886;2023-05-08T03:23:17;22.98;;;14.57;;
75377;SDS011;63959;51.960;5.886;2023-05-08T03:25:47;20.52;;;13.38;;
75377;SDS011;63959;51.960;5.886;2023-05-08T03:28:16;21.27;;;12.82;;
75377;SDS011;63959;51.960;5.886;2023-05-08T03:30:46;24.02;;;13.02;;
75377;SDS011;63959;51.960;5.886;2023-05-08T03:33:19;18.77;;;11.48;;
75377;SDS011;63959;51.960;5.886;2023-05-08T03:35:49;25.10;;;15.23;;
75377;SDS011;63959;51.960;5.886;2023-05-08T03:38:18;16.58;;;9.93;;
75377;SDS011;63959;51.960;5.886;2023-05-08T03:40:47;19.95;;;12.73;;
75377;SDS011;63959;51.960;5.886;2023-05-08T03:43:16;21.83;;;12.95;;
75377;SDS011;63959;51.960;5.886;2023-05-08T03:45:46;16.38;;;10.05;;
75377;SDS011;63959;51.960;5.886;2023-05-08T03:48:18;24.85;;;14.88;;
75377;SDS011;63959;51.960;5.886;2023-05-08T03:50:48;26.27;;;15.50;;
75377;SDS011;63959;51.960;5.886;2023-05-08T03:53:18;21.70;;;13.60;;
75377;SDS011;63959;51.960;5.886;2023-05-08T03:55:47;23.42;;;13.80;;
75377;SDS011;63959;51.960;5.886;2023-05-08T03:58:20;22.95;;;14.35;;
75377;SDS011;63959;51.960;5.886;2023-05-08T04:00:56;24.58;;;15.38;;
75377;SDS011;63959;51.960;5.886;2023-05-08T04:03:36;25.50;;;14.15;;
75377;SDS011;63959;51.960;5.886;2023-05-08T04:06:09;25.52;;;15.35;;
75377;SDS011;63959;51.960;5.886;2023-05-08T04:08:40;25.70;;;16.42;;
75377;SDS011;63959;51.960;5.886;2023-05-08T04:11:21;25.17;;;14.50;;
75377;SDS011;63959;51.960;5.886;2023-05-08T04:13:54;30.20;;;18.70;;
75377;SDS011;63959;51.960;5.886;2023-05-08T04:16:26;23.73;;;14.27;;
75377;SDS011;63959;51.960;5.886;2023-05-08T04:18:59;25.05;;;14.50;;
75377;SDS011;63959;51.960;5.886;2023-05-08T04:21:30;21.65;;;13.07;;
75377;SDS011;63959;51.960;5.886;2023-05-08T04:24:03;23.13;;;13.55;;
75377;SDS011;63959;51.960;5.886;2023-05-08T04:26:35;25.17;;;16.25;;
75377;SDS011;63959;51.960;5.886;2023-05-08T04:29:06;20.30;;;12.20;;
75377;SDS011;63959;51.960;5.886;2023-05-08T04:31:35;24.67;;;14.50;;
75377;SDS011;63959;51.960;5.886;2023-05-08T04:34:07;26.33;;;16.42;;
75377;SDS011;63959;51.960;5.886;2023-05-08T04:36:38;25.40;;;15.60;;
75377;SDS011;63959;51.960;5.886;2023-05-08T04:39:07;29.60;;;17.98;;
75377;SDS011;63959;51.960;5.886;2023-05-08T04:41:37;35.83;;;18.65;;
75377;SDS011;63959;51.960;5.886;2023-05-08T04:44:06;25.30;;;16.20;;
75377;SDS011;63959;51.960;5.886;2023-05-08T04:46:36;32.17;;;19.77;;
75377;SDS011;63959;51.960;5.886;2023-05-08T04:49:07;23.13;;;14.25;;
75377;SDS011;63959;51.960;5.886;2023-05-08T04:51:36;26.52;;;16.45;;
75377;SDS011;63959;51.960;5.886;2023-05-08T04:54:05;23.30;;;13.68;;
75377;SDS011;63959;51.960;5.886;2023-05-08T04:56:34;26.35;;;17.13;;
75377;SDS011;63959;51.960;5.886;2023-05-08T04:59:03;20.85;;;12.50;;
75377;SDS011;63959;51.960;5.886;2023-05-08T05:01:32;23.67;;;16.38;;
75377;SDS011;63959;51.960;5.886;2023-05-08T05:04:04;26.48;;;18.63;;
75377;SDS011;63959;51.960;5.886;2023-05-08T05:06:35;27.55;;;17.83;;
75377;SDS011;63959;51.960;5.886;2023-05-08T05:09:04;25.05;;;16.88;;
75377;SDS011;63959;51.960;5.886;2023-05-08T05:11:33;27.17;;;18.42;;
75377;SDS011;63959;51.960;5.886;2023-05-08T05:14:02;26.58;;;17.42;;
75377;SDS011;63959;51.960;5.886;2023-05-08T05:16:32;28.77;;;19.23;;
75377;SDS011;63959;51.960;5.886;2023-05-08T05:19:01;35.30;;;22.27;;
75377;SDS011;63959;51.960;5.886;2023-05-08T05:21:30;21.73;;;15.13;;
75377;SDS011;63959;51.960;5.886;2023-05-08T05:24:02;22.30;;;14.90;;
75377;SDS011;63959;51.960;5.886;2023-05-08T05:26:30;30.08;;;21.55;;
75377;SDS011;63959;51.960;5.886;2023-05-08T05:28:59;25.60;;;17.67;;
75377;SDS011;63959;51.960;5.886;2023-05-08T05:31:28;24.15;;;15.88;;
75377;SDS011;63959;51.960;5.886;2023-05-08T05:33:57;25.65;;;17.10;;
75377;SDS011;63959;51.960;5.886;2023-05-08T05:36:26;20.98;;;14.07;;
75377;SDS011;63959;51.960;5.886;2023-05-08T05:38:55;23.77;;;16.25;;
75377;SDS011;63959;51.960;5.886;2023-05-08T05:41:27;19.88;;;13.98;;
75377;SDS011;63959;51.960;5.886;2023-05-08T05:43:56;30.63;;;20.23;;
75377;SDS011;63959;51.960;5.886;2023-05-08T05:46:25;23.08;;;15.75;;
75377;SDS011;63959;51.960;5.886;2023-05-08T05:48:59;23.15;;;16.58;;
75377;SDS011;63959;51.960;5.886;2023-05-08T05:51:28;33.42;;;22.80;;
75377;SDS011;63959;51.960;5.886;2023-05-08T05:53:57;18.38;;;12.55;;
75377;SDS011;63959;51.960;5.886;2023-05-08T05:56:29;23.38;;;15.15;;
75377;SDS011;63959;51.960;5.886;2023-05-08T05:58:57;26.65;;;19.02;;
75377;SDS011;63959;51.960;5.886;2023-05-08T06:01:26;26.92;;;19.55;;
75377;SDS011;63959;51.960;5.886;2023-05-08T06:03:56;26.33;;;18.73;;
75377;SDS011;63959;51.960;5.886;2023-05-08T06:06:25;24.73;;;15.55;;
75377;SDS011;63959;51.960;5.886;2023-05-08T06:08:53;31.27;;;20.98;;
75377;SDS011;63959;51.960;5.886;2023-05-08T06:11:22;29.63;;;20.15;;
75377;SDS011;63959;51.960;5.886;2023-05-08T06:13:57;29.45;;;20.05;;
75377;SDS011;63959;51.960;5.886;2023-05-08T06:16:26;32.83;;;22.48;;
75377;SDS011;63959;51.960;5.886;2023-05-08T06:18:55;27.05;;;17.50;;
75377;SDS011;63959;51.960;5.886;2023-05-08T06:21:24;29.10;;;18.55;;
75377;SDS011;63959;51.960;5.886;2023-05-08T06:23:53;22.38;;;13.23;;
75377;SDS011;63959;51.960;5.886;2023-05-08T06:26:22;27.73;;;17.05;;
75377;SDS011;63959;51.960;5.886;2023-05-08T06:28:50;25.65;;;15.85;;
75377;SDS011;63959;51.960;5.886;2023-05-08T06:31:22;25.08;;;14.65;;
75377;SDS011;63959;51.960;5.886;2023-05-08T06:33:50;39.85;;;23.05;;
75377;SDS011;63959;51.960;5.886;2023-05-08T06:36:19;32.42;;;20.30;;
75377;SDS011;63959;51.960;5.886;2023-05-08T06:38:48;40.17;;;25.20;;
75377;SDS011;63959;51.960;5.886;2023-05-08T06:41:16;35.15;;;19.10;;
75377;SDS011;63959;51.960;5.886;2023-05-08T06:43:46;38.80;;;22.08;;
75377;SDS011;63959;51.960;5.886;2023-05-08T06:46:15;38.45;;;23.15;;
75377;SDS011;63959;51.960;5.886;2023-05-08T06:48:46;29.38;;;16.00;;
75377;SDS011;63959;51.960;5.886;2023-05-08T06:51:15;37.25;;;19.63;;
75377;SDS011;63959;51.960;5.886;2023-05-08T06:53:44;44.78;;;26.05;;
75377;SDS011;63959;51.960;5.886;2023-05-08T06:56:13;39.53;;;21.38;;
75377;SDS011;63959;51.960;5.886;2023-05-08T06:58:41;51.33;;;29.15;;
75377;SDS011;63959;51.960;5.886;2023-05-08T07:01:10;34.17;;;18.77;;
75377;SDS011;63959;51.960;5.886;2023-05-08T07:03:39;43.97;;;24.95;;
75377;SDS011;63959;51.960;5.886;2023-05-08T07:06:11;45.00;;;25.38;;
75377;SDS011;63959;51.960;5.886;2023-05-08T07:08:39;41.78;;;24.35;;
75377;SDS011;63959;51.960;5.886;2023-05-08T07:11:08;45.97;;;26.27;;
75377;SDS011;63959;51.960;5.886;2023-05-08T07:13:37;35.60;;;19.08;;
75377;SDS011;63959;51.960;5.886;2023-05-08T07:16:07;46.45;;;26.23;;
75377;SDS011;63959;51.960;5.886;2023-05-08T07:18:36;43.00;;;24.63;;
75377;SDS011;63959;51.960;5.886;2023-05-08T07:21:05;46.25;;;26.70;;
75377;SDS011;63959;51.960;5.886;2023-05-08T07:23:36;45.67;;;25.75;;
75377;SDS011;63959;51.960;5.886;2023-05-08T07:26:05;46.47;;;28.15;;
75377;SDS011;63959;51.960;5.886;2023-05-08T07:28:33;50.05;;;28.38;;
75377;SDS011;63959;51.960;5.886;2023-05-08T07:31:03;39.65;;;23.52;;
75377;SDS011;63959;51.960;5.886;2023-05-08T07:33:31;40.70;;;24.20;;
75377;SDS011;63959;51.960;5.886;2023-05-08T07:36:01;48.28;;;26.90;;
75377;SDS011;63959;51.960;5.886;2023-05-08T07:38:29;43.67;;;25.58;;
75377;SDS011;63959;51.960;5.886;2023-05-08T07:41:01;36.13;;;20.38;;
75377;SDS011;63959;51.960;5.886;2023-05-08T07:43:29;49.35;;;28.88;;
75377;SDS011;63959;51.960;5.886;2023-05-08T07:45:58;48.50;;;28.23;;
75377;SDS011;63959;51.960;5.886;2023-05-08T07:48:27;33.13;;;18.83;;
75377;SDS011;63959;51.960;5.886;2023-05-08T07:50:55;42.63;;;23.27;;
75377;SDS011;63959;51.960;5.886;2023-05-08T07:53:24;30.58;;;17.15;;
75377;SDS011;63959;51.960;5.886;2023-05-08T07:55:52;36.40;;;19.55;;
75377;SDS011;63959;51.960;5.886;2023-05-08T07:58:24;28.40;;;16.88;;
75377;SDS011;63959;51.960;5.886;2023-05-08T08:00:52;50.72;;;29.88;;
75377;SDS011;63959;51.960;5.886;2023-05-08T08:03:21;37.25;;;20.85;;
75377;SDS011;63959;51.960;5.886;2023-05-08T08:05:50;34.70;;;19.00;;
75377;SDS011;63959;51.960;5.886;2023-05-08T08:08:19;29.27;;;15.43;;
75377;SDS011;63959;51.960;5.886;2023-05-08T08:10:48;44.40;;;24.95;;
75377;SDS011;63959;51.960;5.886;2023-05-08T08:13:17;33.80;;;17.85;;
75377;SDS011;63959;51.960;5.886;2023-05-08T08:15:48;43.00;;;23.90;;
75377;SDS011;63959;51.960;5.886;2023-05-08T08:18:17;47.30;;;24.88;;
75377;SDS011;63959;51.960;5.886;2023-05-08T08:20:46;54.53;;;29.17;;
75377;SDS011;63959;51.960;5.886;2023-05-08T08:23:14;40.90;;;20.77;;
75377;SDS011;63959;51.960;5.886;2023-05-08T08:25:43;32.58;;;18.13;;
75377;SDS011;63959;51.960;5.886;2023-05-08T08:28:12;48.72;;;27.48;;
75377;SDS011;63959;51.960;5.886;2023-05-08T08:30:42;53.25;;;29.42;;
75377;SDS011;63959;51.960;5.886;2023-05-08T08:33:13;36.80;;;19.50;;
75377;SDS011;63959;51.960;5.886;2023-05-08T08:35:42;41.88;;;22.27;;
75377;SDS011;63959;51.960;5.886;2023-05-08T08:38:11;49.55;;;25.85;;
75377;SDS011;63959;51.960;5.886;2023-05-08T08:40:39;50.22;;;27.15;;
75377;SDS011;63959;51.960;5.886;2023-05-08T08:43:08;53.60;;;30.95;;
75377;SDS011;63959;51.960;5.886;2023-05-08T08:45:37;50.95;;;30.65;;
75377;SDS011;63959;51.960;5.886;2023-05-08T08:48:08;49.67;;;29.98;;
75377;SDS011;63959;51.960;5.886;2023-05-08T08:50:41;43.15;;;22.77;;
75377;SDS011;63959;51.960;5.886;2023-05-08T08:53:13;51.42;;;28.45;;
75377;SDS011;63959;51.960;5.886;2023-05-08T08:55:43;35.47;;;20.42;;
75377;SDS011;63959;51.960;5.886;2023-05-08T08:58:16;52.75;;;31.60;;
75377;SDS011;63959;51.960;5.886;2023-05-08T09:00:47;37.80;;;24.42;;
75377;SDS011;63959;51.960;5.886;2023-05-08T09:03:19;35.78;;;20.17;;
75377;SDS011;63959;51.960;5.886;2023-05-08T09:05:50;31.27;;;19.17;;
75377;SDS011;63959;51.960;5.886;2023-05-08T09:08:19;45.50;;;29.13;;
75377;SDS011;63959;51.960;5.886;2023-05-08T09:10:48;38.13;;;23.23;;
75377;SDS011;63959;51.960;5.886;2023-05-08T09:13:17;35.83;;;23.30;;
75377;SDS011;63959;51.960;5.886;2023-05-08T09:15:45;29.83;;;17.40;;
75377;SDS011;63959;51.960;5.886;2023-05-08T09:18:15;27.52;;;16.98;;
75377;SDS011;63959;51.960;5.886;2023-05-08T09:20:43;31.55;;;20.33;;
75377;SDS011;63959;51.960;5.886;2023-05-08T09:23:15;37.05;;;25.50;;
75377;SDS011;63959;51.960;5.886;2023-05-08T09:25:45;37.70;;;22.17;;
75377;SDS011;63959;51.960;5.886;2023-05-08T09:28:14;31.42;;;18.25;;
75377;SDS011;63959;51.960;5.886;2023-05-08T09:30:50;46.45;;;26.70;;
75377;SDS011;63959;51.960;5.886;2023-05-08T09:33:19;39.97;;;25.40;;
75377;SDS011;63959;51.960;5.886;2023-05-08T09:35:48;31.20;;;19.95;;
75377;SDS011;63959;51.960;5.886;2023-05-08T09:38:35;36.45;;;24.27;;
75377;SDS011;63959;51.960;5.886;2023-05-08T09:41:05;46.63;;;29.67;;
75377;SDS011;63959;51.960;5.886;2023-05-08T09:43:34;34.33;;;21.73;;
75377;SDS011;63959;51.960;5.886;2023-05-08T09:46:19;41.90;;;26.65;;
75377;SDS011;63959;51.960;5.886;2023-05-08T09:48:48;28.95;;;17.40;;
75377;SDS011;63959;51.960;5.886;2023-05-08T09:51:17;38.55;;;22.92;;
75377;SDS011;63959;51.960;5.886;2023-05-08T09:53:48;38.88;;;25.60;;
75377;SDS011;63959;51.960;5.886;2023-05-08T09:56:27;41.42;;;25.83;;
75377;SDS011;63959;51.960;5.886;2023-05-08T09:58:56;32.42;;;20.50;;
75377;SDS011;63959;51.960;5.886;2023-05-08T10:01:28;33.53;;;22.55;;
75377;SDS011;63959;51.960;5.886;2023-05-08T10:03:57;38.83;;;24.27;;
75377;SDS011;63959;51.960;5.886;2023-05-08T10:06:26;37.42;;;25.50;;
75377;SDS011;63959;51.960;5.886;2023-05-08T10:11:48;37.50;;;23.42;;
75377;SDS011;63959;51.960;5.886;2023-05-08T10:14:20;27.67;;;17.83;;
75377;SDS011;63959;51.960;5.886;2023-05-08T10:16:49;26.85;;;16.63;;
75377;SDS011;63959;51.960;5.886;2023-05-08T10:19:19;28.52;;;17.63;;
75377;SDS011;63959;51.960;5.886;2023-05-08T10:21:48;35.75;;;24.40;;
75377;SDS011;63959;51.960;5.886;2023-05-08T10:24:18;36.72;;;23.95;;
75377;SDS011;63959;51.960;5.886;2023-05-08T10:26:59;35.42;;;24.23;;
75377;SDS011;63959;51.960;5.886;2023-05-08T10:29:31;30.15;;;20.60;;
75377;SDS011;63959;51.960;5.886;2023-05-08T10:32:00;22.95;;;15.05;;
75377;SDS011;63959;51.960;5.886;2023-05-08T10:34:30;30.45;;;21.25;;
75377;SDS011;63959;51.960;5.886;2023-05-08T10:36:59;26.80;;;17.02;;
75377;SDS011;63959;51.960;5.886;2023-05-08T10:39:28;30.73;;;20.95;;
75377;SDS011;63959;51.960;5.886;2023-05-08T10:42:00;29.77;;;19.77;;
75377;SDS011;63959;51.960;5.886;2023-05-08T10:44:29;33.15;;;23.33;;
75377;SDS011;63959;51.960;5.886;2023-05-08T10:47:00;36.28;;;25.55;;
75377;SDS011;63959;51.960;5.886;2023-05-08T10:49:33;36.33;;;25.95;;
75377;SDS011;63959;51.960;5.886;2023-05-08T10:52:06;36.10;;;26.85;;
75377;SDS011;63959;51.960;5.886;2023-05-08T10:54:39;27.23;;;20.00;;
75377;SDS011;63959;51.960;5.886;2023-05-08T10:57:12;39.35;;;27.08;;
75377;SDS011;63959;51.960;5.886;2023-05-08T10:59:43;33.17;;;23.05;;
75377;SDS011;63959;51.960;5.886;2023-05-08T11:02:12;36.15;;;25.48;;
75377;SDS011;63959;51.960;5.886;2023-05-08T11:04:41;40.00;;;26.80;;
75377;SDS011;63959;51.960;5.886;2023-05-08T11:07:10;43.75;;;31.85;;
75377;SDS011;63959;51.960;5.886;2023-05-08T11:09:45;38.60;;;27.85;;
75377;SDS011;63959;51.960;5.886;2023-05-08T11:12:19;39.75;;;27.80;;
75377;SDS011;63959;51.960;5.886;2023-05-08T11:17:21;47.92;;;31.50;;
75377;SDS011;63959;51.960;5.886;2023-05-08T11:19:54;44.05;;;29.92;;
75377;SDS011;63959;51.960;5.886;2023-05-08T11:22:24;43.38;;;29.70;;
75377;SDS011;63959;51.960;5.886;2023-05-08T11:25:04;45.65;;;29.70;;
75377;SDS011;63959;51.960;5.886;2023-05-08T11:30:34;46.83;;;31.50;;
75377;SDS011;63959;51.960;5.886;2023-05-08T11:33:13;33.17;;;22.60;;
75377;SDS011;63959;51.960;5.886;2023-05-08T11:35:43;54.13;;;36.95;;
75377;SDS011;63959;51.960;5.886;2023-05-08T11:38:15;50.08;;;32.83;;
75377;SDS011;63959;51.960;5.886;2023-05-08T11:40:45;46.15;;;32.70;;
75377;SDS011;63959;51.960;5.886;2023-05-08T11:43:21;41.53;;;27.33;;
75377;SDS011;63959;51.960;5.886;2023-05-08T11:45:53;36.55;;;23.85;;
75377;SDS011;63959;51.960;5.886;2023-05-08T11:48:27;45.83;;;31.00;;
75377;SDS011;63959;51.960;5.886;2023-05-08T11:50:56;43.50;;;31.15;;
75377;SDS011;63959;51.960;5.886;2023-05-08T11:53:26;36.13;;;25.85;;
75377;SDS011;63959;51.960;5.886;2023-05-08T11:55:55;51.75;;;38.15;;
75377;SDS011;63959;51.960;5.886;2023-05-08T11:58:26;33.10;;;23.67;;
75377;SDS011;63959;51.960;5.886;2023-05-08T12:00:55;48.58;;;33.30;;
75377;SDS011;63959;51.960;5.886;2023-05-08T12:03:24;33.75;;;23.20;;
75377;SDS011;63959;51.960;5.886;2023-05-08T12:05:54;47.00;;;34.92;;
75377;SDS011;63959;51.960;5.886;2023-05-08T12:08:23;35.42;;;25.38;;
75377;SDS011;63959;51.960;5.886;2023-05-08T12:10:53;52.28;;;36.80;;
75377;SDS011;63959;51.960;5.886;2023-05-08T12:13:22;51.33;;;38.35;;
75377;SDS011;63959;51.960;5.886;2023-05-08T12:15:54;40.47;;;28.00;;
75377;SDS011;63959;51.960;5.886;2023-05-08T12:18:24;46.88;;;33.80;;
75377;SDS011;63959;51.960;5.886;2023-05-08T12:20:55;44.28;;;33.17;;
75377;SDS011;63959;51.960;5.886;2023-05-08T12:23:25;32.33;;;23.95;;
75377;SDS011;63959;51.960;5.886;2023-05-08T12:25:54;39.72;;;27.70;;
75377;SDS011;63959;51.960;5.886;2023-05-08T12:28:23;44.95;;;32.50;;
75377;SDS011;63959;51.960;5.886;2023-05-08T12:30:54;44.17;;;29.55;;
75377;SDS011;63959;51.960;5.886;2023-05-08T12:33:23;36.67;;;25.52;;
75377;SDS011;63959;51.960;5.886;2023-05-08T12:35:53;52.28;;;37.58;;
75377;SDS011;63959;51.960;5.886;2023-05-08T12:38:24;43.70;;;30.15;;
75377;SDS011;63959;51.960;5.886;2023-05-08T12:40:53;51.38;;;35.85;;
75377;SDS011;63959;51.960;5.886;2023-05-08T12:43:29;46.47;;;34.13;;
75377;SDS011;63959;51.960;5.886;2023-05-08T12:46:01;39.03;;;26.10;;
75377;SDS011;63959;51.960;5.886;2023-05-08T12:48:30;43.92;;;31.35;;
75377;SDS011;63959;51.960;5.886;2023-05-08T12:51:02;42.63;;;28.42;;
75377;SDS011;63959;51.960;5.886;2023-05-08T12:53:32;41.72;;;28.95;;
75377;SDS011;63959;51.960;5.886;2023-05-08T12:56:01;41.90;;;28.38;;
75377;SDS011;63959;51.960;5.886;2023-05-08T12:58:31;49.92;;;36.75;;
75377;SDS011;63959;51.960;5.886;2023-05-08T13:01:09;46.05;;;33.60;;
75377;SDS011;63959;51.960;5.886;2023-05-08T13:03:38;47.38;;;33.80;;
75377;SDS011;63959;51.960;5.886;2023-05-08T13:06:17;48.28;;;35.05;;
75377;SDS011;63959;51.960;5.886;2023-05-08T13:08:51;42.25;;;30.58;;
75377;SDS011;63959;51.960;5.886;2023-05-08T13:13:48;52.90;;;35.42;;
75377;SDS011;63959;51.960;5.886;2023-05-08T13:16:19;44.70;;;32.03;;
75377;SDS011;63959;51.960;5.886;2023-05-08T13:18:48;49.65;;;33.45;;
75377;SDS011;63959;51.960;5.886;2023-05-08T13:21:16;41.28;;;28.85;;
75377;SDS011;63959;51.960;5.886;2023-05-08T13:23:45;30.58;;;20.38;;
75377;SDS011;63959;51.960;5.886;2023-05-08T13:26:14;41.28;;;27.85;;
75377;SDS011;63959;51.960;5.886;2023-05-08T13:28:42;40.83;;;29.40;;
75377;SDS011;63959;51.960;5.886;2023-05-08T13:31:11;36.75;;;24.67;;
75377;SDS011;63959;51.960;5.886;2023-05-08T13:33:42;32.00;;;22.35;;
75377;SDS011;63959;51.960;5.886;2023-05-08T13:36:11;36.47;;;26.23;;
75377;SDS011;63959;51.960;5.886;2023-05-08T13:38:39;34.80;;;25.25;;
75377;SDS011;63959;51.960;5.886;2023-05-08T13:41:08;28.33;;;19.27;;
75377;SDS011;63959;51.960;5.886;2023-05-08T13:43:37;38.97;;;27.63;;
75377;SDS011;63959;51.960;5.886;2023-05-08T13:46:07;40.22;;;28.90;;
75377;SDS011;63959;51.960;5.886;2023-05-08T13:48:35;31.13;;;22.15;;
75377;SDS011;63959;51.960;5.886;2023-05-08T13:51:06;35.03;;;24.33;;
75377;SDS011;63959;51.960;5.886;2023-05-08T13:53:35;37.00;;;26.23;;
75377;SDS011;63959;51.960;5.886;2023-05-08T13:56:04;46.88;;;32.70;;
75377;SDS011;63959;51.960;5.886;2023-05-08T13:58:33;34.80;;;24.42;;
75377;SDS011;63959;51.960;5.886;2023-05-08T14:01:01;30.63;;;22.90;;
75377;SDS011;63959;51.960;5.886;2023-05-08T14:03:30;33.50;;;22.75;;
75377;SDS011;63959;51.960;5.886;2023-05-08T14:05:59;23.27;;;16.77;;
75377;SDS011;63959;51.960;5.886;2023-05-08T14:08:30;29.80;;;20.90;;
75377;SDS011;63959;51.960;5.886;2023-05-08T14:10:59;29.55;;;20.95;;
75377;SDS011;63959;51.960;5.886;2023-05-08T14:13:27;43.33;;;30.63;;
75377;SDS011;63959;51.960;5.886;2023-05-08T14:15:56;33.35;;;22.92;;
75377;SDS011;63959;51.960;5.886;2023-05-08T14:18:24;23.95;;;17.13;;
75377;SDS011;63959;51.960;5.886;2023-05-08T14:20:53;30.85;;;21.98;;
75377;SDS011;63959;51.960;5.886;2023-05-08T14:23:22;22.13;;;16.15;;
75377;SDS011;63959;51.960;5.886;2023-05-08T14:25:53;25.48;;;17.63;;
75377;SDS011;63959;51.960;5.886;2023-05-08T14:28:22;28.48;;;19.50;;
75377;SDS011;63959;51.960;5.886;2023-05-08T14:30:50;33.42;;;23.77;;
75377;SDS011;63959;51.960;5.886;2023-05-08T14:33:19;37.47;;;28.35;;
75377;SDS011;63959;51.960;5.886;2023-05-08T14:35:48;31.60;;;22.42;;
75377;SDS011;63959;51.960;5.886;2023-05-08T14:38:16;27.05;;;19.92;;
75377;SDS011;63959;51.960;5.886;2023-05-08T14:40:45;31.33;;;22.00;;
75377;SDS011;63959;51.960;5.886;2023-05-08T14:43:19;34.28;;;26.45;;
75377;SDS011;63959;51.960;5.886;2023-05-08T14:45:47;39.58;;;26.98;;
75377;SDS011;63959;51.960;5.886;2023-05-08T14:48:16;28.20;;;19.10;;
75377;SDS011;63959;51.960;5.886;2023-05-08T14:50:45;34.88;;;24.33;;
75377;SDS011;63959;51.960;5.886;2023-05-08T14:53:14;35.55;;;27.23;;